<?xml version="1.0" encoding="UTF-8" standalone="no" ?>
<gpx xmlns="http://www.topografix.com/GPX/1/1" xmlns:xsi="http://www.w3.org/2001/XMLSchema-instance" xsi:schemaLocation="http://www.topografix.com/GPX/1/1 http://www.topografix.com/GPX/1/1/gpx.xsd" version="1.1" creator="VisuGPX - https://www.visugpx.com">
  <metadata>
    <name>boucles beaumont</name>
    <desc><![CDATA[boucles beaumont du périgord]]></desc>
  </metadata>
  <trk>
    <name><![CDATA[BBmt16]]></name>
    <trkseg>
      <trkpt lat="44.77108" lon="0.7086">
        <ele>150</ele>
        <time>2008-12-09T14:06:27Z</time>
      </trkpt>
      <trkpt lat="44.77095" lon="0.7088">
        <ele>149</ele>
        <time>2008-12-09T14:06:34Z</time>
      </trkpt>
      <trkpt lat="44.77085" lon="0.70903">
        <ele>150</ele>
        <time>2008-12-09T14:06:40Z</time>
      </trkpt>
      <trkpt lat="44.77073" lon="0.70925">
        <ele>149</ele>
        <time>2008-12-09T14:06:45Z</time>
      </trkpt>
      <trkpt lat="44.77063" lon="0.70948">
        <ele>148</ele>
        <time>2008-12-09T14:06:50Z</time>
      </trkpt>
      <trkpt lat="44.7705" lon="0.7097">
        <ele>147</ele>
        <time>2008-12-09T14:06:56Z</time>
      </trkpt>
      <trkpt lat="44.77038" lon="0.7099">
        <ele>146</ele>
        <time>2008-12-09T14:07:37Z</time>
      </trkpt>
      <trkpt lat="44.77023" lon="0.71008">
        <ele>145</ele>
        <time>2008-12-09T14:07:42Z</time>
      </trkpt>
      <trkpt lat="44.77008" lon="0.71023">
        <ele>144</ele>
        <time>2008-12-09T14:07:47Z</time>
      </trkpt>
      <trkpt lat="44.7699" lon="0.71043">
        <ele>141</ele>
        <time>2008-12-09T14:07:53Z</time>
      </trkpt>
      <trkpt lat="44.76975" lon="0.71063">
        <ele>139</ele>
        <time>2008-12-09T14:07:58Z</time>
      </trkpt>
      <trkpt lat="44.7696" lon="0.71078">
        <ele>138</ele>
        <time>2008-12-09T14:08:03Z</time>
      </trkpt>
      <trkpt lat="44.76943" lon="0.71085">
        <ele>144</ele>
        <time>2008-12-09T14:08:12Z</time>
      </trkpt>
      <trkpt lat="44.76839" lon="0.70994">
        <ele>144</ele>
        <time>2009-06-18T16:43:36Z</time>
      </trkpt>
      <trkpt lat="44.76598" lon="0.71163">
        <ele>132</ele>
        <time>2008-12-09T14:24:19Z</time>
      </trkpt>
      <trkpt lat="44.76578" lon="0.71165">
        <ele>125</ele>
        <time>2008-12-09T14:24:39Z</time>
      </trkpt>
      <trkpt lat="44.76558" lon="0.71168">
        <ele>120</ele>
        <time>2008-12-09T14:24:56Z</time>
      </trkpt>
      <trkpt lat="44.76545" lon="0.71188">
        <ele>127</ele>
        <time>2008-12-09T14:25:21Z</time>
      </trkpt>
      <trkpt lat="44.76548" lon="0.71215">
        <ele>129</ele>
        <time>2008-12-09T14:25:26Z</time>
      </trkpt>
      <trkpt lat="44.76553" lon="0.71245">
        <ele>129</ele>
        <time>2008-12-09T14:25:30Z</time>
      </trkpt>
      <trkpt lat="44.76558" lon="0.71278">
        <ele>130</ele>
        <time>2008-12-09T14:25:34Z</time>
      </trkpt>
      <trkpt lat="44.76563" lon="0.71313">
        <ele>130</ele>
        <time>2008-12-09T14:25:38Z</time>
      </trkpt>
      <trkpt lat="44.76565" lon="0.71343">
        <ele>130</ele>
        <time>2008-12-09T14:25:41Z</time>
      </trkpt>
      <trkpt lat="44.7657" lon="0.71373">
        <ele>130</ele>
        <time>2008-12-09T14:25:44Z</time>
      </trkpt>
      <trkpt lat="44.76575" lon="0.71398">
        <ele>132</ele>
        <time>2008-12-09T14:25:47Z</time>
      </trkpt>
      <trkpt lat="44.76578" lon="0.71425">
        <ele>139</ele>
        <time>2008-12-09T14:25:59Z</time>
      </trkpt>
      <trkpt lat="44.76583" lon="0.7145">
        <ele>139</ele>
        <time>2008-12-09T14:26:02Z</time>
      </trkpt>
      <trkpt lat="44.76588" lon="0.71488">
        <ele>137</ele>
        <time>2008-12-09T14:26:05Z</time>
      </trkpt>
      <trkpt lat="44.7659" lon="0.71515">
        <ele>138</ele>
        <time>2008-12-09T14:26:07Z</time>
      </trkpt>
      <trkpt lat="44.76595" lon="0.7154">
        <ele>139</ele>
        <time>2008-12-09T14:26:09Z</time>
      </trkpt>
      <trkpt lat="44.76598" lon="0.71568">
        <ele>140</ele>
        <time>2008-12-09T14:26:11Z</time>
      </trkpt>
      <trkpt lat="44.76605" lon="0.71605">
        <ele>140</ele>
        <time>2008-12-09T14:26:14Z</time>
      </trkpt>
      <trkpt lat="44.76613" lon="0.7164">
        <ele>141</ele>
        <time>2008-12-09T14:26:17Z</time>
      </trkpt>
      <trkpt lat="44.76618" lon="0.71673">
        <ele>142</ele>
        <time>2008-12-09T14:26:20Z</time>
      </trkpt>
      <trkpt lat="44.76618" lon="0.717">
        <ele>142</ele>
        <time>2008-12-09T14:26:36Z</time>
      </trkpt>
      <trkpt lat="44.76603" lon="0.71715">
        <ele>143</ele>
        <time>2008-12-09T14:26:41Z</time>
      </trkpt>
      <trkpt lat="44.76588" lon="0.71738">
        <ele>143</ele>
        <time>2008-12-09T14:26:46Z</time>
      </trkpt>
      <trkpt lat="44.76573" lon="0.71758">
        <ele>143</ele>
        <time>2008-12-09T14:26:50Z</time>
      </trkpt>
      <trkpt lat="44.76558" lon="0.71778">
        <ele>143</ele>
        <time>2008-12-09T14:26:54Z</time>
      </trkpt>
      <trkpt lat="44.76543" lon="0.718">
        <ele>143</ele>
        <time>2008-12-09T14:26:58Z</time>
      </trkpt>
      <trkpt lat="44.76528" lon="0.71823">
        <ele>142</ele>
        <time>2008-12-09T14:27:02Z</time>
      </trkpt>
      <trkpt lat="44.7651" lon="0.71843">
        <ele>142</ele>
        <time>2008-12-09T14:27:06Z</time>
      </trkpt>
      <trkpt lat="44.76495" lon="0.71865">
        <ele>142</ele>
        <time>2008-12-09T14:27:11Z</time>
      </trkpt>
      <trkpt lat="44.76478" lon="0.71888">
        <ele>142</ele>
        <time>2008-12-09T14:27:16Z</time>
      </trkpt>
      <trkpt lat="44.76465" lon="0.71908">
        <ele>142</ele>
        <time>2008-12-09T14:27:20Z</time>
      </trkpt>
      <trkpt lat="44.7645" lon="0.71928">
        <ele>142</ele>
        <time>2008-12-09T14:27:25Z</time>
      </trkpt>
      <trkpt lat="44.7643" lon="0.71928">
        <ele>143</ele>
        <time>2008-12-09T14:29:04Z</time>
      </trkpt>
      <trkpt lat="44.76226" lon="0.71684">
        <ele>143</ele>
        <time>2009-06-18T16:43:36Z</time>
      </trkpt>
      <trkpt lat="44.76022" lon="0.71837">
        <ele>140</ele>
        <time>2009-06-18T16:43:36Z</time>
      </trkpt>
      <trkpt lat="44.75868" lon="0.72063">
        <ele>138</ele>
        <time>2008-12-09T14:35:18Z</time>
      </trkpt>
      <trkpt lat="44.75853" lon="0.72083">
        <ele>139</ele>
        <time>2008-12-09T14:35:28Z</time>
      </trkpt>
      <trkpt lat="44.75838" lon="0.72098">
        <ele>138</ele>
        <time>2008-12-09T14:35:38Z</time>
      </trkpt>
      <trkpt lat="44.75818" lon="0.72105">
        <ele>140</ele>
        <time>2008-12-09T14:35:51Z</time>
      </trkpt>
      <trkpt lat="44.75813" lon="0.72133">
        <ele>139</ele>
        <time>2008-12-09T14:35:55Z</time>
      </trkpt>
      <trkpt lat="44.75805" lon="0.72158">
        <ele>139</ele>
        <time>2008-12-09T14:35:59Z</time>
      </trkpt>
      <trkpt lat="44.758" lon="0.72183">
        <ele>139</ele>
        <time>2008-12-09T14:36:08Z</time>
      </trkpt>
      <trkpt lat="44.75793" lon="0.72208">
        <ele>139</ele>
        <time>2008-12-09T14:36:13Z</time>
      </trkpt>
      <trkpt lat="44.75788" lon="0.72233">
        <ele>141</ele>
        <time>2008-12-09T14:36:21Z</time>
      </trkpt>
      <trkpt lat="44.7578" lon="0.72258">
        <ele>143</ele>
        <time>2008-12-09T14:36:26Z</time>
      </trkpt>
      <trkpt lat="44.75778" lon="0.72285">
        <ele>148</ele>
        <time>2008-12-09T14:36:33Z</time>
      </trkpt>
      <trkpt lat="44.75745" lon="0.72419">
        <ele>148</ele>
        <time>2008-12-09T14:36:39Z</time>
      </trkpt>
    </trkseg>
  </trk>
</gpx>